sensor_id;sensor_type;location;lat;lon;timestamp;pressure;altitude;pressure_sealevel;temperature
68027;BMP180;54819;48.030;14.710;2022-12-31T00:00:06;97725.20;;;6.12
68027;BMP180;54819;48.030;14.710;2022-12-31T00:02:34;97717.00;;;6.10
68027;BMP180;54819;48.030;14.710;2022-12-31T00:05:02;97713.20;;;6.10
68027;BMP180;54819;48.030;14.710;2022-12-31T00:07:29;97702.40;;;6.18
68027;BMP180;54819;48.030;14.710;2022-12-31T00:09:56;97719.80;;;6.20
68027;BMP180;54819;48.030;14.710;2022-12-31T00:12:23;97706.60;;;6.20
68027;BMP180;54819;48.030;14.710;2022-12-31T00:14:50;97707.60;;;6.20
68027;BMP180;54819;48.030;14.710;2022-12-31T00:17:17;97713.60;;;6.20
68027;BMP180;54819;48.030;14.710;2022-12-31T00:19:44;97716.60;;;6.30
68027;BMP180;54819;48.030;14.710;2022-12-31T00:22:11;97713.00;;;6.30
68027;BMP180;54819;48.030;14.710;2022-12-31T00:24:38;97721.60;;;6.34
68027;BMP180;54819;48.030;14.710;2022-12-31T00:27:05;97713.00;;;6.34
68027;BMP180;54819;48.030;14.710;2022-12-31T00:29:32;97727.20;;;6.32
68027;BMP180;54819;48.030;14.710;2022-12-31T00:31:59;97719.60;;;6.30
68027;BMP180;54819;48.030;14.710;2022-12-31T00:34:25;97724.20;;;6.20
68027;BMP180;54819;48.030;14.710;2022-12-31T00:36:52;97717.40;;;6.20
68027;BMP180;54819;48.030;14.710;2022-12-31T00:39:19;97727.60;;;6.20
68027;BMP180;54819;48.030;14.710;2022-12-31T00:41:46;97732.00;;;6.20
68027;BMP180;54819;48.030;14.710;2022-12-31T00:44:13;97741.60;;;6.30
68027;BMP180;54819;48.030;14.710;2022-12-31T00:46:40;97751.00;;;6.30
68027;BMP180;54819;48.030;14.710;2022-12-31T00:49:05;97761.00;;;6.30
68027;BMP180;54819;48.030;14.710;2022-12-31T00:51:32;97785.60;;;6.38
68027;BMP180;54819;48.030;14.710;2022-12-31T00:53:59;97783.60;;;6.40
68027;BMP180;54819;48.030;14.710;2022-12-31T00:56:28;97797.80;;;6.40
68027;BMP180;54819;48.030;14.710;2022-12-31T00:58:57;97805.20;;;6.40
68027;BMP180;54819;48.030;14.710;2022-12-31T01:01:27;97790.20;;;6.40
68027;BMP180;54819;48.030;14.710;2022-12-31T01:04:05;97794.00;;;6.50
68027;BMP180;54819;48.030;14.710;2022-12-31T01:06:32;97798.20;;;6.50
68027;BMP180;54819;48.030;14.710;2022-12-31T01:08:58;97806.40;;;6.50
68027;BMP180;54819;48.030;14.710;2022-12-31T01:11:25;97822.60;;;6.50
68027;BMP180;54819;48.030;14.710;2022-12-31T01:14:08;97826.20;;;6.50
68027;BMP180;54819;48.030;14.710;2022-12-31T01:16:47;97840.40;;;6.50
68027;BMP180;54819;48.030;14.710;2022-12-31T01:19:17;97839.20;;;6.50
68027;BMP180;54819;48.030;14.710;2022-12-31T01:21:45;97839.60;;;6.56
68027;BMP180;54819;48.030;14.710;2022-12-31T01:24:12;97849.60;;;6.56
68027;BMP180;54819;48.030;14.710;2022-12-31T01:26:39;97853.80;;;6.60
68027;BMP180;54819;48.030;14.710;2022-12-31T01:29:07;97853.00;;;6.60
68027;BMP180;54819;48.030;14.710;2022-12-31T01:31:35;97865.80;;;6.60
68027;BMP180;54819;48.030;14.710;2022-12-31T01:34:03;97862.80;;;6.60
68027;BMP180;54819;48.030;14.710;2022-12-31T01:36:31;97857.80;;;6.60
68027;BMP180;54819;48.030;14.710;2022-12-31T01:39:00;97863.80;;;6.60
68027;BMP180;54819;48.030;14.710;2022-12-31T01:41:34;97862.40;;;6.60
68027;BMP180;54819;48.030;14.710;2022-12-31T01:46:56;97868.00;;;6.60
68027;BMP180;54819;48.030;14.710;2022-12-31T01:49:36;97861.40;;;6.60
68027;BMP180;54819;48.030;14.710;2022-12-31T01:52:16;97860.80;;;6.70
68027;BMP180;54819;48.030;14.710;2022-12-31T01:54:47;97852.60;;;6.70
68027;BMP180;54819;48.030;14.710;2022-12-31T01:57:15;97851.40;;;6.74
68027;BMP180;54819;48.030;14.710;2022-12-31T01:59:44;97833.60;;;6.80
68027;BMP180;54819;48.030;14.710;2022-12-31T02:02:13;97828.40;;;6.80
68027;BMP180;54819;48.030;14.710;2022-12-31T02:04:41;97819.80;;;6.84
68027;BMP180;54819;48.030;14.710;2022-12-31T02:07:09;97829.20;;;6.90
68027;BMP180;54819;48.030;14.710;2022-12-31T02:09:38;97813.20;;;6.90
68027;BMP180;54819;48.030;14.710;2022-12-31T02:12:07;97814.60;;;7.00
68027;BMP180;54819;48.030;14.710;2022-12-31T02:14:48;97813.80;;;7.00
68027;BMP180;54819;48.030;14.710;2022-12-31T02:31:44;97804.00;;;7.20
68027;BMP180;54819;48.030;14.710;2022-12-31T02:34:18;97800.00;;;7.20
68027;BMP180;54819;48.030;14.710;2022-12-31T02:36:51;97807.60;;;7.20
68027;BMP180;54819;48.030;14.710;2022-12-31T02:39:20;97818.80;;;7.20
68027;BMP180;54819;48.030;14.710;2022-12-31T02:41:48;97808.60;;;7.20
68027;BMP180;54819;48.030;14.710;2022-12-31T02:44:27;97809.40;;;7.20
68027;BMP180;54819;48.030;14.710;2022-12-31T02:54:50;97810.40;;;6.70
68027;BMP180;54819;48.030;14.710;2022-12-31T03:00:06;97826.00;;;6.70
68027;BMP180;54819;48.030;14.710;2022-12-31T03:02:53;97826.80;;;6.70
68027;BMP180;54819;48.030;14.710;2022-12-31T03:05:24;97833.40;;;6.70
68027;BMP180;54819;48.030;14.710;2022-12-31T03:07:52;97833.20;;;6.70
68027;BMP180;54819;48.030;14.710;2022-12-31T03:10:20;97826.80;;;6.70
68027;BMP180;54819;48.030;14.710;2022-12-31T03:12:47;97823.00;;;6.70
68027;BMP180;54819;48.030;14.710;2022-12-31T03:15:23;97826.80;;;6.80
68027;BMP180;54819;48.030;14.710;2022-12-31T03:20:27;97830.80;;;6.80
68027;BMP180;54819;48.030;14.710;2022-12-31T03:23:17;97836.80;;;6.80
68027;BMP180;54819;48.030;14.710;2022-12-31T03:25:45;97826.40;;;6.70
68027;BMP180;54819;48.030;14.710;2022-12-31T03:28:18;97831.60;;;6.70
68027;BMP180;54819;48.030;14.710;2022-12-31T03:30:48;97834.80;;;6.70
68027;BMP180;54819;48.030;14.710;2022-12-31T03:33:15;97844.40;;;6.70
68027;BMP180;54819;48.030;14.710;2022-12-31T03:35:43;97841.20;;;6.76
68027;BMP180;54819;48.030;14.710;2022-12-31T03:38:11;97839.20;;;6.80
68027;BMP180;54819;48.030;14.710;2022-12-31T03:40:42;97842.00;;;6.80
68027;BMP180;54819;48.030;14.710;2022-12-31T03:43:09;97850.20;;;6.84
68027;BMP180;54819;48.030;14.710;2022-12-31T03:45:36;97851.80;;;6.90
68027;BMP180;54819;48.030;14.710;2022-12-31T03:48:05;97861.80;;;6.90
68027;BMP180;54819;48.030;14.710;2022-12-31T03:50:33;97858.00;;;6.90
68027;BMP180;54819;48.030;14.710;2022-12-31T03:53:00;97883.60;;;7.00
68027;BMP180;54819;48.030;14.710;2022-12-31T03:55:27;97882.20;;;7.00
68027;BMP180;54819;48.030;14.710;2022-12-31T03:57:53;97890.00;;;7.00
68027;BMP180;54819;48.030;14.710;2022-12-31T04:00:21;97895.80;;;7.00
68027;BMP180;54819;48.030;14.710;2022-12-31T04:02:48;97902.80;;;7.10
68027;BMP180;54819;48.030;14.710;2022-12-31T04:05:17;97901.20;;;7.10
68027;BMP180;54819;48.030;14.710;2022-12-31T04:07:45;97905.60;;;7.10
68027;BMP180;54819;48.030;14.710;2022-12-31T04:10:14;97895.40;;;7.16
68027;BMP180;54819;48.030;14.710;2022-12-31T04:12:41;97890.00;;;7.20
68027;BMP180;54819;48.030;14.710;2022-12-31T04:15:09;97885.40;;;7.20
68027;BMP180;54819;48.030;14.710;2022-12-31T04:17:36;97878.80;;;7.20
68027;BMP180;54819;48.030;14.710;2022-12-31T04:20:03;97873.00;;;7.30
68027;BMP180;54819;48.030;14.710;2022-12-31T04:22:30;97864.80;;;7.30
68027;BMP180;54819;48.030;14.710;2022-12-31T04:24:57;97860.40;;;7.30
68027;BMP180;54819;48.030;14.710;2022-12-31T04:27:24;97863.80;;;7.30
68027;BMP180;54819;48.030;14.710;2022-12-31T04:29:50;97852.20;;;7.40
68027;BMP180;54819;48.030;14.710;2022-12-31T04:32:17;97843.20;;;7.40
68027;BMP180;54819;48.030;14.710;2022-12-31T04:34:44;97843.20;;;7.40
68027;BMP180;54819;48.030;14.710;2022-12-31T04:37:10;97854.00;;;7.50
68027;BMP180;54819;48.030;14.710;2022-12-31T04:39:37;97858.60;;;7.60
68027;BMP180;54819;48.030;14.710;2022-12-31T04:42:04;97868.40;;;7.70
68027;BMP180;54819;48.030;14.710;2022-12-31T04:44:31;97876.00;;;7.70
68027;BMP180;54819;48.030;14.710;2022-12-31T04:47:00;97873.60;;;7.80
68027;BMP180;54819;48.030;14.710;2022-12-31T04:49:27;97874.60;;;7.80
68027;BMP180;54819;48.030;14.710;2022-12-31T04:51:54;97872.40;;;7.80
68027;BMP180;54819;48.030;14.710;2022-12-31T04:54:21;97877.80;;;8.00
68027;BMP180;54819;48.030;14.710;2022-12-31T04:56:47;97873.00;;;8.10
68027;BMP180;54819;48.030;14.710;2022-12-31T04:59:14;97874.00;;;8.30
68027;BMP180;54819;48.030;14.710;2022-12-31T05:01:41;97871.00;;;8.48
68027;BMP180;54819;48.030;14.710;2022-12-31T05:04:08;97865.20;;;8.60
68027;BMP180;54819;48.030;14.710;2022-12-31T05:06:35;97866.20;;;8.80
68027;BMP180;54819;48.030;14.710;2022-12-31T05:09:02;97863.20;;;8.90
68027;BMP180;54819;48.030;14.710;2022-12-31T05:11:29;97869.60;;;9.02
68027;BMP180;54819;48.030;14.710;2022-12-31T05:13:56;97878.80;;;9.20
68027;BMP180;54819;48.030;14.710;2022-12-31T05:16:22;97866.20;;;9.30
68027;BMP180;54819;48.030;14.710;2022-12-31T05:18:49;97866.20;;;9.40
68027;BMP180;54819;48.030;14.710;2022-12-31T05:21:19;97871.20;;;9.50
68027;BMP180;54819;48.030;14.710;2022-12-31T05:23:47;97870.80;;;9.60
68027;BMP180;54819;48.030;14.710;2022-12-31T05:26:14;97869.40;;;9.70
68027;BMP180;54819;48.030;14.710;2022-12-31T05:28:41;97864.00;;;9.80
68027;BMP180;54819;48.030;14.710;2022-12-31T05:31:08;97869.00;;;9.90
68027;BMP180;54819;48.030;14.710;2022-12-31T05:33:35;97877.80;;;10.00
68027;BMP180;54819;48.030;14.710;2022-12-31T05:36:02;97880.80;;;10.10
68027;BMP180;54819;48.030;14.710;2022-12-31T05:38:28;97878.80;;;10.10
68027;BMP180;54819;48.030;14.710;2022-12-31T05:41:04;97878.20;;;10.20
68027;BMP180;54819;48.030;14.710;2022-12-31T05:43:31;97876.80;;;10.20
68027;BMP180;54819;48.030;14.710;2022-12-31T05:46:02;97875.60;;;10.30
68027;BMP180;54819;48.030;14.710;2022-12-31T05:48:30;97875.20;;;10.34
68027;BMP180;54819;48.030;14.710;2022-12-31T05:50:57;97881.20;;;10.40
68027;BMP180;54819;48.030;14.710;2022-12-31T05:53:23;97884.60;;;10.48
68027;BMP180;54819;48.030;14.710;2022-12-31T05:55:50;97898.60;;;10.50
68027;BMP180;54819;48.030;14.710;2022-12-31T05:58:17;97896.60;;;10.50
68027;BMP180;54819;48.030;14.710;2022-12-31T06:00:44;97902.40;;;10.60
68027;BMP180;54819;48.030;14.710;2022-12-31T06:03:11;97900.20;;;10.60
68027;BMP180;54819;48.030;14.710;2022-12-31T06:05:40;97889.00;;;10.70
68027;BMP180;54819;48.030;14.710;2022-12-31T06:08:09;97901.00;;;10.80
68027;BMP180;54819;48.030;14.710;2022-12-31T06:10:37;97910.60;;;10.80
68027;BMP180;54819;48.030;14.710;2022-12-31T06:13:04;97916.40;;;10.90
68027;BMP180;54819;48.030;14.710;2022-12-31T06:15:36;97919.20;;;10.90
68027;BMP180;54819;48.030;14.710;2022-12-31T06:18:04;97901.60;;;10.70
68027;BMP180;54819;48.030;14.710;2022-12-31T06:20:31;97909.80;;;10.46
68027;BMP180;54819;48.030;14.710;2022-12-31T06:22:58;97909.60;;;10.20
68027;BMP180;54819;48.030;14.710;2022-12-31T06:25:25;97911.80;;;10.00
68027;BMP180;54819;48.030;14.710;2022-12-31T06:27:52;97915.20;;;9.98
68027;BMP180;54819;48.030;14.710;2022-12-31T06:30:19;97914.60;;;9.90
68027;BMP180;54819;48.030;14.710;2022-12-31T06:32:45;97906.40;;;9.80
68027;BMP180;54819;48.030;14.710;2022-12-31T06:35:12;97909.00;;;9.80
68027;BMP180;54819;48.030;14.710;2022-12-31T06:37:39;97916.40;;;9.80
68027;BMP180;54819;48.030;14.710;2022-12-31T06:40:06;97910.20;;;9.70
68027;BMP180;54819;48.030;14.710;2022-12-31T06:42:33;97919.80;;;9.60
68027;BMP180;54819;48.030;14.710;2022-12-31T06:45:00;97922.00;;;9.60
68027;BMP180;54819;48.030;14.710;2022-12-31T06:47:27;97924.80;;;9.60
68027;BMP180;54819;48.030;14.710;2022-12-31T06:49:54;97925.80;;;9.56
68027;BMP180;54819;48.030;14.710;2022-12-31T06:52:21;97933.80;;;9.60
68027;BMP180;54819;48.030;14.710;2022-12-31T06:54:48;97938.20;;;9.50
68027;BMP180;54819;48.030;14.710;2022-12-31T06:57:16;97932.00;;;9.50
68027;BMP180;54819;48.030;14.710;2022-12-31T06:59:43;97932.60;;;9.50
68027;BMP180;54819;48.030;14.710;2022-12-31T07:10:22;97930.00;;;9.50
68027;BMP180;54819;48.030;14.710;2022-12-31T07:21:24;97943.00;;;9.50
68027;BMP180;54819;48.030;14.710;2022-12-31T07:23:55;97929.00;;;9.54
68027;BMP180;54819;48.030;14.710;2022-12-31T07:26:34;97945.20;;;9.60
68027;BMP180;54819;48.030;14.710;2022-12-31T07:32:27;97947.60;;;9.60
68027;BMP180;54819;48.030;14.710;2022-12-31T07:37:48;97950.20;;;9.60
68027;BMP180;54819;48.030;14.710;2022-12-31T07:40:33;97943.40;;;9.60
68027;BMP180;54819;48.030;14.710;2022-12-31T07:45:58;97943.60;;;9.70
68027;BMP180;54819;48.030;14.710;2022-12-31T07:48:28;97948.20;;;9.74
68027;BMP180;54819;48.030;14.710;2022-12-31T07:50:56;97953.40;;;9.80
68027;BMP180;54819;48.030;14.710;2022-12-31T07:53:23;97962.80;;;9.80
68027;BMP180;54819;48.030;14.710;2022-12-31T07:55:59;97970.80;;;9.80
68027;BMP180;54819;48.030;14.710;2022-12-31T08:12:14;98020.00;;;9.34
68027;BMP180;54819;48.030;14.710;2022-12-31T08:14:43;98021.20;;;9.40
68027;BMP180;54819;48.030;14.710;2022-12-31T08:17:16;98024.20;;;9.40
68027;BMP180;54819;48.030;14.710;2022-12-31T08:19:44;98017.60;;;9.40
68027;BMP180;54819;48.030;14.710;2022-12-31T08:25:33;98016.40;;;9.50
68027;BMP180;54819;48.030;14.710;2022-12-31T08:28:39;98017.60;;;9.60
68027;BMP180;54819;48.030;14.710;2022-12-31T08:39:31;98024.00;;;10.00
68027;BMP180;54819;48.030;14.710;2022-12-31T08:42:03;98015.80;;;10.10
68027;BMP180;54819;48.030;14.710;2022-12-31T08:44:44;98018.20;;;10.26
68027;BMP180;54819;48.030;14.710;2022-12-31T08:49:46;98025.00;;;10.32
68027;BMP180;54819;48.030;14.710;2022-12-31T08:52:20;98020.80;;;10.40
68027;BMP180;54819;48.030;14.710;2022-12-31T08:54:48;98032.60;;;10.46
68027;BMP180;54819;48.030;14.710;2022-12-31T09:00:10;98031.80;;;10.52
68027;BMP180;54819;48.030;14.710;2022-12-31T09:14:44;98044.20;;;11.00
68027;BMP180;54819;48.030;14.710;2022-12-31T09:19:43;98040.60;;;10.90
68027;BMP180;54819;48.030;14.710;2022-12-31T09:22:10;98036.60;;;11.00
68027;BMP180;54819;48.030;14.710;2022-12-31T09:24:37;98029.60;;;11.14
68027;BMP180;54819;48.030;14.710;2022-12-31T09:30:05;98034.80;;;11.46
68027;BMP180;54819;48.030;14.710;2022-12-31T09:32:48;98028.80;;;11.60
68027;BMP180;54819;48.030;14.710;2022-12-31T09:35:37;98026.60;;;11.70
68027;BMP180;54819;48.030;14.710;2022-12-31T09:52:21;98041.00;;;12.40
68027;BMP180;54819;48.030;14.710;2022-12-31T09:57:48;98033.20;;;12.10
68027;BMP180;54819;48.030;14.710;2022-12-31T10:00:27;98029.60;;;12.10
68027;BMP180;54819;48.030;14.710;2022-12-31T10:09:02;98024.40;;;12.10
68027;BMP180;54819;48.030;14.710;2022-12-31T10:15:19;98016.40;;;12.08
68027;BMP180;54819;48.030;14.710;2022-12-31T10:20:33;98020.80;;;12.00
68027;BMP180;54819;48.030;14.710;2022-12-31T10:31:16;98022.60;;;12.00
68027;BMP180;54819;48.030;14.710;2022-12-31T10:36:56;98030.80;;;12.06
68027;BMP180;54819;48.030;14.710;2022-12-31T10:53:57;98020.80;;;12.40
68027;BMP180;54819;48.030;14.710;2022-12-31T11:02:56;98011.80;;;12.60
68027;BMP180;54819;48.030;14.710;2022-12-31T11:11:33;97987.60;;;13.20
68027;BMP180;54819;48.030;14.710;2022-12-31T11:22:15;97969.00;;;13.80
68027;BMP180;54819;48.030;14.710;2022-12-31T11:25:00;97964.40;;;13.90
68027;BMP180;54819;48.030;14.710;2022-12-31T11:38:27;97951.20;;;14.40
68027;BMP180;54819;48.030;14.710;2022-12-31T11:41:05;97945.60;;;14.50
68027;BMP180;54819;48.030;14.710;2022-12-31T11:54:48;97940.60;;;14.60
68027;BMP180;54819;48.030;14.710;2022-12-31T11:57:33;97939.00;;;14.70
68027;BMP180;54819;48.030;14.710;2022-12-31T12:00:22;97939.20;;;14.70
68027;BMP180;54819;48.030;14.710;2022-12-31T12:02:53;97935.60;;;14.80
68027;BMP180;54819;48.030;14.710;2022-12-31T12:05:23;97935.00;;;14.80
68027;BMP180;54819;48.030;14.710;2022-12-31T12:07:51;97937.40;;;14.70
68027;BMP180;54819;48.030;14.710;2022-12-31T12:10:30;97936.80;;;14.70
68027;BMP180;54819;48.030;14.710;2022-12-31T12:13:12;97934.20;;;14.70
68027;BMP180;54819;48.030;14.710;2022-12-31T12:15:45;97930.20;;;14.72
68027;BMP180;54819;48.030;14.710;2022-12-31T12:21:26;97928.80;;;14.80
68027;BMP180;54819;48.030;14.710;2022-12-31T12:23:57;97928.00;;;14.90
68027;BMP180;54819;48.030;14.710;2022-12-31T12:26:33;97924.80;;;14.90
68027;BMP180;54819;48.030;14.710;2022-12-31T12:29:14;97922.00;;;14.98
68027;BMP180;54819;48.030;14.710;2022-12-31T12:31:53;97923.40;;;15.00
68027;BMP180;54819;48.030;14.710;2022-12-31T12:34:26;97930.80;;;15.10
68027;BMP180;54819;48.030;14.710;2022-12-31T12:36:54;97929.40;;;15.10
68027;BMP180;54819;48.030;14.710;2022-12-31T12:39:24;97932.60;;;15.10
68027;BMP180;54819;48.030;14.710;2022-12-31T12:42:08;97932.20;;;15.10
68027;BMP180;54819;48.030;14.710;2022-12-31T12:44:36;97935.00;;;15.20
68027;BMP180;54819;48.030;14.710;2022-12-31T12:47:05;97927.00;;;15.20
68027;BMP180;54819;48.030;14.710;2022-12-31T12:49:45;97919.80;;;15.30
68027;BMP180;54819;48.030;14.710;2022-12-31T13:00:31;97919.60;;;15.40
68027;BMP180;54819;48.030;14.710;2022-12-31T13:05:45;97929.60;;;15.50
68027;BMP180;54819;48.030;14.710;2022-12-31T13:09:05;97926.20;;;15.36
68027;BMP180;54819;48.030;14.710;2022-12-31T13:22:25;97911.00;;;15.30
68027;BMP180;54819;48.030;14.710;2022-12-31T13:27:37;97902.20;;;15.40
68027;BMP180;54819;48.030;14.710;2022-12-31T13:30:27;97900.40;;;15.46
68027;BMP180;54819;48.030;14.710;2022-12-31T13:33:19;97899.80;;;15.50
68027;BMP180;54819;48.030;14.710;2022-12-31T13:35:51;97899.80;;;15.60
68027;BMP180;54819;48.030;14.710;2022-12-31T13:38:32;97901.00;;;15.60
68027;BMP180;54819;48.030;14.710;2022-12-31T13:41:05;97900.80;;;15.68
68027;BMP180;54819;48.030;14.710;2022-12-31T13:48:55;97894.00;;;15.70
68027;BMP180;54819;48.030;14.710;2022-12-31T13:51:51;97890.40;;;15.70
68027;BMP180;54819;48.030;14.710;2022-12-31T13:56:52;97888.00;;;15.70
68027;BMP180;54819;48.030;14.710;2022-12-31T13:59:28;97888.80;;;15.70
68027;BMP180;54819;48.030;14.710;2022-12-31T14:05:14;97886.00;;;15.70
68027;BMP180;54819;48.030;14.710;2022-12-31T14:08:08;97887.00;;;15.70
68027;BMP180;54819;48.030;14.710;2022-12-31T14:22:42;97910.80;;;15.30
68027;BMP180;54819;48.030;14.710;2022-12-31T14:25:19;97920.00;;;15.20
68027;BMP180;54819;48.030;14.710;2022-12-31T14:27:49;97918.40;;;15.10
68027;BMP180;54819;48.030;14.710;2022-12-31T14:30:20;97909.20;;;15.00
68027;BMP180;54819;48.030;14.710;2022-12-31T14:41:35;97913.40;;;15.00
68027;BMP180;54819;48.030;14.710;2022-12-31T14:44:12;97911.00;;;15.00
68027;BMP180;54819;48.030;14.710;2022-12-31T14:47:09;97908.80;;;14.98
68027;BMP180;54819;48.030;14.710;2022-12-31T14:52:29;97909.00;;;14.90
68027;BMP180;54819;48.030;14.710;2022-12-31T14:55:02;97915.20;;;14.94
68027;BMP180;54819;48.030;14.710;2022-12-31T14:57:38;97911.20;;;15.00
68027;BMP180;54819;48.030;14.710;2022-12-31T15:03:41;97919.80;;;15.00
68027;BMP180;54819;48.030;14.710;2022-12-31T15:09:01;97921.20;;;14.80
68027;BMP180;54819;48.030;14.710;2022-12-31T15:11:50;97934.80;;;14.68
68027;BMP180;54819;48.030;14.710;2022-12-31T15:17:54;97942.20;;;14.10
68027;BMP180;54819;48.030;14.710;2022-12-31T15:23:33;97944.00;;;13.50
68027;BMP180;54819;48.030;14.710;2022-12-31T15:25:59;97941.80;;;13.32
68027;BMP180;54819;48.030;14.710;2022-12-31T15:31:04;97941.80;;;13.20
68027;BMP180;54819;48.030;14.710;2022-12-31T15:33:36;97949.80;;;13.10
68027;BMP180;54819;48.030;14.710;2022-12-31T15:36:15;97944.20;;;13.00
68027;BMP180;54819;48.030;14.710;2022-12-31T15:38:43;97940.20;;;12.90
68027;BMP180;54819;48.030;14.710;2022-12-31T15:41:27;97945.80;;;12.80
68027;BMP180;54819;48.030;14.710;2022-12-31T15:44:15;97947.60;;;12.74
68027;BMP180;54819;48.030;14.710;2022-12-31T15:46:43;97951.00;;;12.70
68027;BMP180;54819;48.030;14.710;2022-12-31T15:49:17;97952.20;;;12.60
68027;BMP180;54819;48.030;14.710;2022-12-31T15:52:07;97951.20;;;12.60
68027;BMP180;54819;48.030;14.710;2022-12-31T15:54:43;97948.40;;;12.50
68027;BMP180;54819;48.030;14.710;2022-12-31T15:59:59;97948.00;;;12.30
68027;BMP180;54819;48.030;14.710;2022-12-31T16:02:27;97944.00;;;12.30
68027;BMP180;54819;48.030;14.710;2022-12-31T16:04:54;97942.20;;;12.30
68027;BMP180;54819;48.030;14.710;2022-12-31T16:07:22;97945.60;;;12.32
68027;BMP180;54819;48.030;14.710;2022-12-31T16:09:52;97940.00;;;12.40
68027;BMP180;54819;48.030;14.710;2022-12-31T16:12:22;97946.80;;;12.50
68027;BMP180;54819;48.030;14.710;2022-12-31T16:14:58;97942.80;;;12.50
68027;BMP180;54819;48.030;14.710;2022-12-31T16:19:52;97942.20;;;12.40
68027;BMP180;54819;48.030;14.710;2022-12-31T16:22:37;97948.80;;;12.40
68027;BMP180;54819;48.030;14.710;2022-12-31T16:25:06;97953.80;;;12.38
68027;BMP180;54819;48.030;14.710;2022-12-31T16:27:53;97953.20;;;12.30
68027;BMP180;54819;48.030;14.710;2022-12-31T16:30:30;97961.00;;;12.20
68027;BMP180;54819;48.030;14.710;2022-12-31T16:33:01;97964.20;;;12.10
68027;BMP180;54819;48.030;14.710;2022-12-31T16:35:33;97969.80;;;12.00
68027;BMP180;54819;48.030;14.710;2022-12-31T16:40:27;97984.00;;;11.70
68027;BMP180;54819;48.030;14.710;2022-12-31T16:42:54;97987.60;;;11.62
68027;BMP180;54819;48.030;14.710;2022-12-31T16:45:32;97996.40;;;11.60
68027;BMP180;54819;48.030;14.710;2022-12-31T16:48:08;97996.00;;;11.50
68027;BMP180;54819;48.030;14.710;2022-12-31T16:50:51;97993.00;;;11.44
68027;BMP180;54819;48.030;14.710;2022-12-31T16:53:22;97987.40;;;11.40
68027;BMP180;54819;48.030;14.710;2022-12-31T16:55:56;97994.00;;;11.40
68027;BMP180;54819;48.030;14.710;2022-12-31T16:58:26;97994.00;;;11.40
68027;BMP180;54819;48.030;14.710;2022-12-31T17:01:02;97993.00;;;11.40
68027;BMP180;54819;48.030;14.710;2022-12-31T17:03:34;97992.20;;;11.30
68027;BMP180;54819;48.030;14.710;2022-12-31T17:08:46;97981.00;;;11.20
68027;BMP180;54819;48.030;14.710;2022-12-31T17:11:21;97976.00;;;11.20
68027;BMP180;54819;48.030;14.710;2022-12-31T17:13:59;97972.80;;;11.20
68027;BMP180;54819;48.030;14.710;2022-12-31T17:16:27;97972.00;;;11.20
68027;BMP180;54819;48.030;14.710;2022-12-31T17:18:54;97971.80;;;11.20
68027;BMP180;54819;48.030;14.710;2022-12-31T17:21:27;97977.60;;;11.20
68027;BMP180;54819;48.030;14.710;2022-12-31T17:24:13;97985.00;;;11.20
68027;BMP180;54819;48.030;14.710;2022-12-31T17:26:41;97986.20;;;11.10
68027;BMP180;54819;48.030;14.710;2022-12-31T17:29:18;97983.40;;;11.08
68027;BMP180;54819;48.030;14.710;2022-12-31T17:32:27;97976.00;;;11.00
68027;BMP180;54819;48.030;14.710;2022-12-31T17:34:50;97974.80;;;10.90
68027;BMP180;54819;48.030;14.710;2022-12-31T17:37:22;97972.20;;;10.88
68027;BMP180;54819;48.030;14.710;2022-12-31T17:39:52;97966.40;;;10.80
68027;BMP180;54819;48.030;14.710;2022-12-31T17:42:33;97969.00;;;10.80
68027;BMP180;54819;48.030;14.710;2022-12-31T17:45:06;97970.00;;;10.80
68027;BMP180;54819;48.030;14.710;2022-12-31T17:47:39;97976.60;;;10.80
68027;BMP180;54819;48.030;14.710;2022-12-31T17:50:17;97979.60;;;10.80
68027;BMP180;54819;48.030;14.710;2022-12-31T17:52:45;97979.00;;;10.80
68027;BMP180;54819;48.030;14.710;2022-12-31T17:55:12;97984.00;;;10.72
68027;BMP180;54819;48.030;14.710;2022-12-31T17:57:48;97988.00;;;10.70
68027;BMP180;54819;48.030;14.710;2022-12-31T18:00:18;97990.40;;;10.70
68027;BMP180;54819;48.030;14.710;2022-12-31T18:02:45;97994.20;;;10.70
68027;BMP180;54819;48.030;14.710;2022-12-31T18:05:17;97989.40;;;10.60
68027;BMP180;54819;48.030;14.710;2022-12-31T18:07:45;98000.00;;;10.58
68027;BMP180;54819;48.030;14.710;2022-12-31T18:10:14;98005.80;;;10.50
68027;BMP180;54819;48.030;14.710;2022-12-31T18:12:43;98009.80;;;10.50
68027;BMP180;54819;48.030;14.710;2022-12-31T18:15:14;98016.40;;;10.40
68027;BMP180;54819;48.030;14.710;2022-12-31T18:17:42;98017.80;;;10.30
68027;BMP180;54819;48.030;14.710;2022-12-31T18:20:10;98018.40;;;10.30
68027;BMP180;54819;48.030;14.710;2022-12-31T18:22:39;98015.40;;;10.30
68027;BMP180;54819;48.030;14.710;2022-12-31T18:25:08;98013.00;;;10.20
68027;BMP180;54819;48.030;14.710;2022-12-31T18:27:36;98018.00;;;10.14
68027;BMP180;54819;48.030;14.710;2022-12-31T18:30:05;98010.60;;;10.10
68027;BMP180;54819;48.030;14.710;2022-12-31T18:32:33;98011.00;;;10.10
68027;BMP180;54819;48.030;14.710;2022-12-31T18:35:00;97996.40;;;10.10
68027;BMP180;54819;48.030;14.710;2022-12-31T18:37:28;98008.60;;;10.00
68027;BMP180;54819;48.030;14.710;2022-12-31T18:39:56;97999.00;;;10.00
68027;BMP180;54819;48.030;14.710;2022-12-31T18:42:24;97996.20;;;9.90
68027;BMP180;54819;48.030;14.710;2022-12-31T18:44:52;97996.40;;;9.90
68027;BMP180;54819;48.030;14.710;2022-12-31T18:47:19;98001.80;;;9.80
68027;BMP180;54819;48.030;14.710;2022-12-31T18:49:49;98001.20;;;9.80
68027;BMP180;54819;48.030;14.710;2022-12-31T18:52:19;97995.80;;;9.70
68027;BMP180;54819;48.030;14.710;2022-12-31T18:54:46;97995.40;;;9.70
68027;BMP180;54819;48.030;14.710;2022-12-31T18:57:14;97992.40;;;9.66
68027;BMP180;54819;48.030;14.710;2022-12-31T18:59:41;97992.00;;;9.60
68027;BMP180;54819;48.030;14.710;2022-12-31T19:02:14;97991.60;;;9.60
68027;BMP180;54819;48.030;14.710;2022-12-31T19:04:41;97990.00;;;9.50
68027;BMP180;54819;48.030;14.710;2022-12-31T19:07:08;97989.00;;;9.50
68027;BMP180;54819;48.030;14.710;2022-12-31T19:09:35;97985.40;;;9.50
68027;BMP180;54819;48.030;14.710;2022-12-31T19:12:12;97985.20;;;9.60
68027;BMP180;54819;48.030;14.710;2022-12-31T19:14:40;97980.80;;;9.60